Time;durP1;ratioP1;P1;durP2;ratioP2;P2;SDS_P1;SDS_P2;PMS_P1;PMS_P2;Temp;Humidity;BMP_temperature;BMP_pressure;BME280_temperature;BME280_humidity;BME280_pressure;Samples;Min_cycle;Max_cycle;Signal;HPM_P1;HPM_P2
2022/07/31 00:01:28;;;;;;;7.67;5.65;;;;;;;21.30;73.81;100639.69;1883016;76;21043;-63
2022/07/31 00:03:56;;;;;;;9.65;5.80;;;;;;;21.28;73.70;100646.14;1881802;75;21149;-63
2022/07/31 00:06:25;;;;;;;11.50;5.60;;;;;;;21.28;73.72;100648.32;1880776;76;21039;-63
2022/07/31 00:08:54;;;;;;;12.50;5.87;;;;;;;21.25;73.63;100639.23;1880940;75;21047;-63
2022/07/31 00:11:22;;;;;;;10.95;5.35;;;;;;;21.19;73.93;100642.41;1880953;76;21035;-63
2022/07/31 00:13:51;;;;;;;8.53;5.70;;;;;;;21.14;73.95;100634.79;1880952;76;21035;-63
2022/07/31 00:16:20;;;;;;;9.63;5.97;;;;;;;21.09;74.11;100638.34;1880914;76;21047;-63
2022/07/31 00:18:49;;;;;;;11.48;5.72;;;;;;;21.05;74.25;100642.27;1880845;76;21474;-63
2022/07/31 00:21:17;;;;;;;9.28;5.50;;;;;;;21.04;74.34;100643.23;1880880;76;21526;-62
2022/07/31 00:23:46;;;;;;;9.20;5.67;;;;;;;21.02;74.28;100639.84;1880896;76;21129;-63
2022/07/31 00:26:15;;;;;;;9.05;5.50;;;;;;;21.00;74.37;100640.46;1880991;76;21101;-63
2022/07/31 00:28:44;;;;;;;13.95;6.42;;;;;;;20.96;74.44;100643.05;1881022;76;21090;-63
2022/07/31 00:31:13;;;;;;;9.20;5.22;;;;;;;20.93;74.29;100646.81;1881060;76;21524;-64
2022/07/31 00:33:41;;;;;;;10.45;5.62;;;;;;;20.88;74.83;100642.36;1880898;76;21106;-63
2022/07/31 00:36:10;;;;;;;9.83;5.47;;;;;;;20.86;74.80;100642.98;1880908;76;21047;-63
2022/07/31 00:38:38;;;;;;;14.43;5.90;;;;;;;20.86;74.75;100640.77;1880918;76;21035;-63
2022/07/31 00:41:08;;;;;;;9.43;5.72;;;;;;;20.81;74.68;100631.31;1880847;76;21015;-63
2022/07/31 00:43:36;;;;;;;12.40;5.85;;;;;;;20.72;75.35;100636.09;1880953;75;21044;-63
2022/07/31 00:46:05;;;;;;;12.73;6.60;;;;;;;20.68;75.38;100631.98;1880699;76;21028;-63
2022/07/31 00:48:34;;;;;;;9.70;5.37;;;;;;;20.66;75.62;100631.27;1880957;76;21481;-63
2022/07/31 00:51:04;;;;;;;12.90;6.25;;;;;;;20.66;75.62;100628.59;1880869;75;21117;-63
2022/07/31 00:53:32;;;;;;;11.73;6.55;;;;;;;20.63;75.69;100627.00;1880866;75;21152;-63
2022/07/31 00:56:01;;;;;;;9.63;5.80;;;;;;;20.62;75.84;100625.32;1880843;76;21047;-63
2022/07/31 00:58:30;;;;;;;9.65;5.53;;;;;;;20.61;75.75;100627.63;1880763;76;21047;-63
2022/07/31 01:00:58;;;;;;;12.75;6.20;;;;;;;20.60;75.56;100627.28;1880882;76;21015;-63
2022/07/31 01:03:27;;;;;;;15.38;5.35;;;;;;;20.59;75.36;100624.20;1880931;75;21011;-63
2022/07/31 01:05:56;;;;;;;10.38;6.15;;;;;;;20.60;75.62;100622.36;1883075;75;21059;-64
2022/07/31 01:08:25;;;;;;;9.70;4.87;;;;;;;20.59;75.43;100618.84;1883165;76;21470;-63
2022/07/31 01:11:20;;;;;;;9.55;5.50;;;;;;;20.58;75.39;100617.63;1883038;76;21132;-63
2022/07/31 01:13:55;;;;;;;8.25;5.45;;;;;;;20.57;75.37;100615.95;1883396;76;21031;-63
2022/07/31 01:16:27;;;;;;;13.70;5.97;;;;;;;20.54;75.30;100621.55;1883125;76;21086;-63
2022/07/31 01:18:57;;;;;;;12.88;5.87;;;;;;;20.52;75.53;100615.48;1883152;76;21101;-63
2022/07/31 01:21:34;;;;;;;11.65;5.33;;;;;;;20.50;75.75;100612.92;1883039;76;21007;-63
2022/07/31 01:24:37;;;;;;;11.38;5.75;;;;;;;20.51;75.74;100606.61;1882025;76;21537;-63
2022/07/31 01:27:43;;;;;;;7.72;5.42;;;;;;;20.49;75.51;100602.34;1882850;75;21078;-63
2022/07/31 01:30:12;;;;;;;11.48;6.10;;;;;;;20.47;75.34;100610.49;1883307;76;21059;-63
2022/07/31 01:32:44;;;;;;;8.18;5.65;;;;;;;20.40;75.54;100610.66;1883199;76;21498;-63
2022/07/31 01:35:19;;;;;;;12.58;6.12;;;;;;;20.35;75.61;100608.85;1883123;76;21129;-63
2022/07/31 01:37:54;;;;;;;10.48;6.05;;;;;;;20.31;75.81;100604.73;1883129;76;21063;-64
2022/07/31 01:40:48;;;;;;;15.55;6.35;;;;;;;20.27;76.21;100605.48;1883169;75;21510;-63
2022/07/31 01:43:25;;;;;;;9.30;5.62;;;;;;;20.21;76.50;100608.63;1883511;76;21462;-63
2022/07/31 01:45:57;;;;;;;9.20;6.05;;;;;;;20.13;76.82;100607.09;1883090;76;21552;-63
2022/07/31 01:48:28;;;;;;;11.40;6.05;;;;;;;20.09;77.18;100610.99;1883153;75;21476;-63
2022/07/31 01:51:00;;;;;;;12.82;6.28;;;;;;;20.05;77.28;100608.55;1883107;75;21512;-63
2022/07/31 01:53:30;;;;;;;12.17;6.17;;;;;;;20.04;77.48;100617.53;1883562;76;21093;-63
2022/07/31 01:56:01;;;;;;;14.03;6.65;;;;;;;20.04;77.62;100611.34;1883171;75;21055;-63
2022/07/31 01:58:42;;;;;;;9.23;5.67;;;;;;;20.02;77.54;100611.47;1883235;75;21051;-63
2022/07/31 02:01:15;;;;;;;12.65;5.95;;;;;;;20.01;77.67;100615.59;1822813;75;21137;-63
2022/07/31 02:03:45;;;;;;;11.95;5.87;;;;;;;20.03;77.71;100610.51;1883110;76;21093;-63
2022/07/31 02:06:17;;;;;;;12.45;6.42;;;;;;;20.04;77.62;100607.34;1883022;75;21192;-63
2022/07/31 02:08:49;;;;;;;11.00;5.67;;;;;;;20.05;77.55;100611.23;1883102;75;21055;-63
2022/07/31 02:11:20;;;;;;;11.27;5.73;;;;;;;20.02;77.78;100614.14;1883336;76;21148;-64
2022/07/31 02:13:49;;;;;;;9.95;6.37;;;;;;;19.99;77.87;100614.41;1883237;75;21289;-63
2022/07/31 02:16:19;;;;;;;9.88;5.65;;;;;;;19.98;78.02;100607.35;1883038;76;21039;-63
2022/07/31 02:18:53;;;;;;;11.12;6.05;;;;;;;19.97;77.96;100607.47;1883002;75;21575;-63
2022/07/31 02:21:25;;;;;;;9.53;6.00;;;;;;;19.98;77.83;100610.02;1883003;75;21067;-63
2022/07/31 02:23:55;;;;;;;12.10;5.10;;;;;;;19.99;77.73;100601.51;1883031;76;21482;-64
2022/07/31 02:26:26;;;;;;;10.90;5.80;;;;;;;19.98;77.40;100596.66;1883066;75;21039;-64
2022/07/31 02:28:56;;;;;;;9.48;5.12;;;;;;;19.98;77.78;100597.16;1883147;76;21533;-63
2022/07/31 02:31:27;;;;;;;8.43;6.08;;;;;;;19.97;77.89;100600.30;1883189;75;21109;-63
2022/07/31 02:33:56;;;;;;;8.80;5.53;;;;;;;19.97;78.09;100600.79;1883189;76;21474;-63
2022/07/31 02:36:26;;;;;;;9.75;6.30;;;;;;;19.98;78.32;100598.49;1883038;76;21090;-65
2022/07/31 02:38:57;;;;;;;12.55;5.90;;;;;;;20.00;78.22;100597.38;1883111;76;21082;-64
2022/07/31 02:41:27;;;;;;;13.40;5.67;;;;;;;20.04;78.33;100605.50;1883214;76;21047;-62
2022/07/31 02:43:57;;;;;;;12.68;5.58;;;;;;;20.07;78.18;100601.75;1883188;76;21145;-63
2022/07/31 02:46:27;;;;;;;8.60;5.62;;;;;;;20.09;77.97;100606.98;1883052;76;21551;-63
2022/07/31 02:48:57;;;;;;;14.13;6.50;;;;;;;20.11;77.97;100607.20;1883019;75;21153;-63
2022/07/31 02:51:26;;;;;;;14.07;6.10;;;;;;;20.14;78.16;100605.63;1883113;76;21541;-63
2022/07/31 02:53:55;;;;;;;11.33;5.72;;;;;;;20.20;78.22;100610.96;1883150;76;21136;-64
2022/07/31 02:56:25;;;;;;;8.90;5.78;;;;;;;20.30;78.18;100612.39;1883118;76;21157;-63
2022/07/31 02:58:55;;;;;;;13.90;5.83;;;;;;;20.40;78.02;100615.52;1883102;76;21168;-63
2022/07/31 03:01:25;;;;;;;14.45;5.28;;;;;;;20.53;77.79;100609.16;1882861;75;21203;-64
2022/07/31 03:03:54;;;;;;;15.65;5.75;;;;;;;20.73;77.51;100615.06;1883111;76;21145;-63
2022/07/31 03:06:23;;;;;;;6.95;4.55;;;;;;;20.91;77.19;100614.48;1881695;76;21106;-63
2022/07/31 03:08:51;;;;;;;8.75;4.65;;;;;;;21.05;76.94;100610.14;1880977;75;21043;-63
2022/07/31 03:11:22;;;;;;;10.18;5.28;;;;;;;21.24;76.76;100621.95;1880947;76;21129;-63
2022/07/31 03:13:54;;;;;;;11.38;6.00;;;;;;;21.48;76.31;100618.52;1880973;76;21478;-64
2022/07/31 03:16:24;;;;;;;7.37;4.87;;;;;;;21.56;75.67;100617.38;1880959;76;21120;-63
2022/07/31 03:18:55;;;;;;;11.03;5.37;;;;;;;21.58;75.66;100616.74;1881051;76;21043;-63
2022/07/31 03:21:25;;;;;;;8.33;5.20;;;;;;;21.63;75.63;100614.98;1880951;76;21011;-63
2022/07/31 03:23:54;;;;;;;12.18;5.92;;;;;;;21.69;75.53;100616.27;1880946;75;21443;-63
2022/07/31 03:26:23;;;;;;;10.10;5.70;;;;;;;21.79;75.56;100618.02;1880836;76;21125;-64
2022/07/31 03:28:53;;;;;;;10.03;5.20;;;;;;;21.92;75.42;100613.75;1880882;76;21054;-64
2022/07/31 03:31:22;;;;;;;8.95;5.67;;;;;;;22.03;75.25;100617.32;1880941;76;21125;-63
2022/07/31 03:33:51;;;;;;;9.78;5.35;;;;;;;22.06;75.28;100620.58;1880948;76;21564;-63
2022/07/31 03:36:19;;;;;;;9.40;5.15;;;;;;;22.13;75.32;100624.88;1881011;76;21047;-63
2022/07/31 03:38:48;;;;;;;9.73;5.35;;;;;;;22.23;75.11;100616.37;1880957;75;21603;-63
2022/07/31 03:41:19;;;;;;;8.50;4.90;;;;;;;22.35;74.87;100617.99;1879162;76;21167;-63
2022/07/31 03:43:49;;;;;;;12.00;6.17;;;;;;;22.43;74.14;100609.71;1880824;76;21083;-63
2022/07/31 03:46:22;;;;;;;9.23;4.95;;;;;;;22.54;73.92;100610.44;1881052;75;21173;-63
2022/07/31 03:48:51;;;;;;;8.68;5.40;;;;;;;22.69;73.65;100605.50;1880930;75;21093;-63
2022/07/31 03:51:20;;;;;;;16.57;5.72;;;;;;;22.83;73.35;100609.56;1880976;76;21039;-64
2022/07/31 03:53:50;;;;;;;8.05;5.10;;;;;;;22.97;73.01;100608.30;1880814;76;21185;-63
2022/07/31 03:56:39;;;;;;;8.73;5.03;;;;;;;23.11;72.62;100607.88;1880969;76;21062;-63
2022/07/31 03:59:09;;;;;;;6.47;4.40;;;;;;;23.25;72.02;100602.53;1880962;76;21121;-63
2022/07/31 04:01:38;;;;;;;9.95;5.58;;;;;;;23.33;71.29;100608.52;1880860;76;21067;-63
2022/07/31 04:04:08;;;;;;;9.88;5.12;;;;;;;23.40;70.78;100606.94;1880889;75;21505;-63
2022/07/31 04:06:39;;;;;;;17.17;5.60;;;;;;;23.53;70.39;100609.80;1878948;75;21189;-63
2022/07/31 04:09:08;;;;;;;11.05;5.50;;;;;;;23.70;70.04;100609.05;1880993;76;21055;-63
2022/07/31 04:11:37;;;;;;;11.80;5.40;;;;;;;23.89;69.67;100608.97;1880919;76;21047;-63
2022/07/31 04:14:05;;;;;;;11.43;5.37;;;;;;;24.11;69.16;100608.21;1880850;76;21083;-63
2022/07/31 04:16:34;;;;;;;12.18;5.67;;;;;;;24.34;68.66;100607.27;1880779;76;21149;-64
2022/07/31 04:19:03;;;;;;;11.08;5.58;;;;;;;24.59;67.99;100604.34;1880955;76;21149;-63
2022/07/31 04:21:32;;;;;;;10.10;5.65;;;;;;;24.87;67.60;100611.48;1880881;76;21047;-63
2022/07/31 04:24:01;;;;;;;13.45;6.05;;;;;;;25.16;67.15;100613.89;1880869;75;21112;-64
2022/07/31 04:26:48;;;;;;;10.70;5.83;;;;;;;25.47;66.80;100606.68;1880808;76;21063;-65
2022/07/31 04:29:18;;;;;;;12.15;6.50;;;;;;;25.81;66.19;100618.30;1880805;76;21585;-63
2022/07/31 04:31:47;;;;;;;11.53;6.50;;;;;;;25.99;65.38;100612.02;1880842;76;21494;-63
2022/07/31 04:34:17;;;;;;;10.48;6.08;;;;;;;26.10;64.68;100615.75;1879936;76;21107;-63
2022/07/31 04:36:45;;;;;;;13.10;6.30;;;;;;;26.28;64.33;100616.13;1880900;76;21086;-62
2022/07/31 04:39:14;;;;;;;8.23;5.80;;;;;;;26.53;63.98;100613.80;1880844;76;21530;-63
2022/07/31 04:41:43;;;;;;;8.95;6.28;;;;;;;26.70;63.54;100613.84;1880897;76;21166;-63
2022/07/31 04:44:11;;;;;;;11.40;5.75;;;;;;;26.94;63.25;100615.19;1881071;75;21015;-62
2022/07/31 04:46:42;;;;;;;10.28;6.28;;;;;;;27.24;63.01;100618.21;1879640;76;21168;-63
2022/07/31 04:49:13;;;;;;;13.43;6.40;;;;;;;27.53;62.58;100618.16;1881054;76;21529;-62
2022/07/31 04:51:43;;;;;;;11.48;6.35;;;;;;;27.78;62.05;100620.77;1880967;76;21063;-63
2022/07/31 04:54:11;;;;;;;12.65;6.12;;;;;;;27.99;61.52;100615.63;1880953;76;21012;-63
2022/07/31 04:56:43;;;;;;;10.15;6.03;;;;;;;28.23;60.97;100623.29;1880894;76;21040;-63
2022/07/31 04:59:14;;;;;;;13.50;5.92;;;;;;;28.50;60.44;100624.13;1881079;76;21486;-63
2022/07/31 05:01:44;;;;;;;8.75;5.87;;;;;;;28.74;60.27;100626.36;1880928;76;21604;-63
2022/07/31 05:04:15;;;;;;;10.28;6.28;;;;;;;28.99;59.92;100623.42;1880942;75;21076;-63
2022/07/31 05:06:46;;;;;;;7.95;5.40;;;;;;;29.30;59.51;100624.67;1880832;75;21623;-63
2022/07/31 05:09:18;;;;;;;14.63;6.50;;;;;;;29.52;58.90;100627.50;1881101;76;21067;-63
2022/07/31 05:11:47;;;;;;;10.85;5.70;;;;;;;29.68;58.44;100628.67;1881266;76;21099;-63
2022/07/31 05:14:19;;;;;;;8.98;6.17;;;;;;;30.09;57.89;100627.34;1880950;76;21619;-62
2022/07/31 05:16:48;;;;;;;11.80;6.17;;;;;;;30.36;57.26;100619.84;1880924;76;21011;-64
2022/07/31 05:19:18;;;;;;;10.32;5.45;;;;;;;30.66;56.68;100617.00;1863893;76;21599;-64
2022/07/31 05:22:05;;;;;;;10.45;5.92;;;;;;;30.93;56.23;100617.24;1880901;76;21055;-64
2022/07/31 05:24:47;;;;;;;13.32;6.83;;;;;;;30.95;54.82;100615.16;1838002;76;21078;-64
2022/07/31 05:27:15;;;;;;;10.90;5.45;;;;;;;30.93;53.96;100619.96;1880891;76;21104;-65
2022/07/31 05:29:44;;;;;;;12.30;6.10;;;;;;;31.10;53.90;100611.85;1880885;76;21109;-63
2022/07/31 05:32:12;;;;;;;14.13;6.85;;;;;;;31.40;53.77;100604.83;1881023;76;21031;-64
2022/07/31 05:34:41;;;;;;;10.43;6.40;;;;;;;31.56;52.69;100609.14;1881009;76;21007;-64
2022/07/31 05:37:11;;;;;;;11.63;6.60;;;;;;;31.70;52.07;100599.98;1881032;76;21502;-64
2022/07/31 05:39:41;;;;;;;9.55;6.30;;;;;;;31.87;51.14;100599.13;1880920;75;21133;-65
2022/07/31 05:42:27;;;;;;;8.50;5.80;;;;;;;31.96;50.70;100589.41;1880872;76;21145;-64
2022/07/31 05:45:13;;;;;;;14.50;7.20;;;;;;;32.05;50.35;100587.68;1816981;77;21583;-66
2022/07/31 05:47:41;;;;;;;11.12;6.03;;;;;;;32.06;50.09;100590.73;1859759;76;21043;-66
2022/07/31 05:50:11;;;;;;;9.35;5.95;;;;;;;32.35;50.06;100582.41;1880996;76;21510;-66
2022/07/31 05:52:40;;;;;;;11.78;6.17;;;;;;;32.57;49.61;100583.89;1880904;75;21643;-66
2022/07/31 05:55:23;;;;;;;11.60;6.55;;;;;;;32.78;48.60;100582.06;1878185;76;21539;-66
2022/07/31 05:57:56;;;;;;;10.88;5.97;;;;;;;32.93;47.85;100583.21;1878705;76;21095;-65
2022/07/31 06:00:27;;;;;;;10.43;6.30;;;;;;;33.19;47.90;100575.54;1880849;76;21012;-66
2022/07/31 06:02:58;;;;;;;11.73;6.55;;;;;;;33.19;47.90;100575.54;1881168;76;21142;-65
2022/07/31 06:05:38;;;;;;;15.08;6.10;;;;;;;33.28;47.00;100574.27;1862487;76;21113;-65
2022/07/31 06:08:08;;;;;;;10.50;6.42;;;;;;;33.28;47.00;100574.27;1881801;75;21112;-65
2022/07/31 06:10:38;;;;;;;11.45;6.62;;;;;;;33.06;47.28;100577.73;1882955;75;21132;-66
2022/07/31 06:13:07;;;;;;;8.65;6.47;;;;;;;33.53;45.83;100559.89;1883133;75;21203;-66
2022/07/31 06:15:36;;;;;;;9.53;6.58;;;;;;;33.53;45.83;100559.89;1883166;76;21039;-65
2022/07/31 06:18:05;;;;;;;10.93;6.20;;;;;;;33.87;45.65;100563.37;1883032;76;21122;-65
2022/07/31 06:20:34;;;;;;;13.38;7.50;;;;;;;34.17;45.19;100561.73;1883151;75;21113;-65
2022/07/31 06:23:03;;;;;;;12.10;6.80;;;;;;;33.99;43.74;100559.73;1883120;75;21129;-64
2022/07/31 06:25:33;;;;;;;14.05;8.13;;;;;;;33.71;44.76;100559.23;1882764;76;21164;-65
2022/07/31 06:28:02;;;;;;;12.37;6.50;;;;;;;34.10;45.26;100554.06;1882951;76;21117;-65
2022/07/31 06:30:30;;;;;;;16.65;6.87;;;;;;;34.57;44.87;100552.41;1883089;76;21125;-65
2022/07/31 06:32:59;;;;;;;13.48;6.85;;;;;;;34.88;44.03;100557.00;1883223;76;21039;-65
2022/07/31 06:35:29;;;;;;;11.40;6.17;;;;;;;34.97;43.29;100551.55;1883064;76;21071;-65
2022/07/31 06:38:02;;;;;;;11.33;6.40;;;;;;;35.06;43.21;100557.55;1880305;75;21517;-66
2022/07/31 06:40:33;;;;;;;10.45;6.15;;;;;;;35.08;43.22;100547.75;1882681;75;21177;-65
2022/07/31 06:43:12;;;;;;;12.60;6.40;;;;;;;35.25;43.14;100552.97;1850378;76;21062;-65
2022/07/31 06:45:48;;;;;;;11.97;5.92;;;;;;;35.62;42.42;100551.58;1834585;75;21152;-64
2022/07/31 06:48:19;;;;;;;13.20;6.53;;;;;;;35.86;41.49;100551.72;1854463;76;21129;-65
2022/07/31 06:50:49;;;;;;;11.30;6.83;;;;;;;35.98;41.34;100549.84;1882561;75;21203;-64
2022/07/31 06:53:19;;;;;;;8.80;5.72;;;;;;;36.18;40.93;100549.59;1870304;76;21561;-64
2022/07/31 06:55:48;;;;;;;9.58;5.85;;;;;;;36.52;40.69;100542.52;1883150;75;21462;-65
2022/07/31 06:58:16;;;;;;;10.75;6.60;;;;;;;36.76;39.83;100537.08;1883137;76;21067;-65
2022/07/31 07:00:45;;;;;;;12.03;5.85;;;;;;;36.88;38.81;100531.03;1883075;76;21235;-65
2022/07/31 07:03:14;;;;;;;8.68;5.83;;;;;;;36.85;38.27;100531.53;1882869;76;21109;-65
2022/07/31 07:05:43;;;;;;;10.75;5.75;;;;;;;36.65;38.42;100538.70;1883236;76;21079;-65
2022/07/31 07:08:11;;;;;;;6.30;5.30;;;;;;;36.68;38.58;100540.98;1882072;76;21097;-65
2022/07/31 07:10:42;;;;;;;11.60;5.40;;;;;;;36.94;38.22;100533.34;1880903;76;21047;-66
2022/07/31 07:13:22;;;;;;;9.23;7.10;;;;;;;37.09;38.00;100539.20;1880283;76;21550;-66
2022/07/31 07:15:51;;;;;;;11.75;5.97;;;;;;;37.07;37.65;100534.49;1880806;75;21534;-66
2022/07/31 07:18:21;;;;;;;9.60;5.80;;;;;;;37.06;37.65;100534.73;1880887;76;21513;-66
2022/07/31 07:20:52;;;;;;;9.23;5.28;;;;;;;37.28;36.82;100528.09;1880650;76;21095;-66
2022/07/31 07:23:22;;;;;;;10.43;5.25;;;;;;;37.04;36.63;100531.39;1880925;75;21132;-65
2022/07/31 07:25:55;;;;;;;7.35;5.15;;;;;;;37.09;36.50;100528.22;1874516;76;21071;-65
2022/07/31 07:28:24;;;;;;;9.90;5.22;;;;;;;37.07;36.46;100529.52;1871098;76;21137;-65
2022/07/31 07:30:53;;;;;;;8.98;5.42;;;;;;;37.24;36.47;100529.64;1873708;76;21535;-66
2022/07/31 07:33:22;;;;;;;9.55;6.08;;;;;;;37.53;36.32;100529.14;1880883;75;21043;-66
2022/07/31 07:35:50;;;;;;;8.15;5.08;;;;;;;37.57;36.04;100526.22;1880814;76;21043;-66
2022/07/31 07:38:19;;;;;;;12.40;5.08;;;;;;;37.74;36.29;100523.55;1880839;76;21075;-66
2022/07/31 07:40:48;;;;;;;8.13;5.28;;;;;;;38.00;35.84;100520.73;1880760;76;21170;-66
2022/07/31 07:43:18;;;;;;;8.68;5.08;;;;;;;38.25;35.28;100525.03;1878434;76;21474;-68
2022/07/31 07:45:47;;;;;;;8.38;4.80;;;;;;;38.19;34.98;100519.98;1874540;76;21586;-65
2022/07/31 07:48:15;;;;;;;10.18;4.72;;;;;;;38.24;34.50;100520.08;1874497;76;21600;-66
2022/07/31 07:50:46;;;;;;;9.13;4.30;;;;;;;38.19;34.46;100522.73;1868852;76;21036;-65
2022/07/31 07:53:19;;;;;;;8.45;5.08;;;;;;;38.15;34.57;100520.20;1872178;76;21031;-66
2022/07/31 07:56:00;;;;;;;9.08;4.22;;;;;;;38.42;35.05;100520.90;1844432;76;21060;-66
2022/07/31 07:58:42;;;;;;;9.20;3.83;;;;;;;38.79;34.21;100519.02;1835161;76;21061;-65
2022/07/31 08:01:28;;;;;;;6.50;3.92;;;;;;;39.02;33.69;100519.39;1874380;76;21062;-65
2022/07/31 08:03:59;;;;;;;7.95;4.53;;;;;;;39.25;33.18;100516.95;1872123;76;21137;-65
2022/07/31 08:06:27;;;;;;;10.30;4.12;;;;;;;39.42;32.75;100514.64;1874425;76;21082;-65
2022/07/31 08:08:56;;;;;;;8.10;4.45;;;;;;;39.35;32.33;100515.68;1875420;76;21113;-66
2022/07/31 08:11:35;;;;;;;9.25;4.30;;;;;;;39.14;31.77;100522.86;1881117;76;21067;-65
2022/07/31 08:14:05;;;;;;;8.83;4.45;;;;;;;39.21;32.02;100516.33;1883840;76;21497;-65
2022/07/31 08:16:53;;;;;;;12.45;5.17;;;;;;;39.52;32.17;100517.00;1886014;76;21509;-65
2022/07/31 08:19:22;;;;;;;12.58;4.87;;;;;;;39.75;32.01;100519.20;1886025;76;21586;-65
2022/07/31 08:21:52;;;;;;;7.80;5.35;;;;;;;39.89;31.61;100510.77;1886167;76;21509;-65
2022/07/31 08:24:20;;;;;;;11.48;5.22;;;;;;;39.90;31.80;100509.73;1886170;76;21109;-65
2022/07/31 08:29:35;;;;;;;10.18;3.87;;;;;;;40.14;31.64;100503.33;1886074;76;21026;-65
2022/07/31 08:32:06;;;;;;;5.20;3.50;;;;;;;40.35;31.36;100503.52;1883896;76;21053;-65
2022/07/31 08:34:54;;;;;;;4.30;2.77;;;;;;;40.27;30.89;100496.53;1886012;76;21164;-67
2022/07/31 08:37:23;;;;;;;7.42;3.60;;;;;;;40.06;30.28;100496.08;1886146;76;21058;-65
2022/07/31 08:39:52;;;;;;;4.15;2.83;;;;;;;39.68;30.23;100484.95;1886198;76;21469;-65
2022/07/31 08:42:21;;;;;;;11.40;3.58;;;;;;;39.42;29.69;100485.20;1886081;76;21038;-65
2022/07/31 08:44:50;;;;;;;5.05;3.50;;;;;;;39.30;29.90;100481.74;1886023;76;21038;-66
2022/07/31 08:47:23;;;;;;;6.58;3.45;;;;;;;39.39;29.71;100476.89;1885439;76;21478;-64
2022/07/31 08:49:53;;;;;;;7.97;4.00;;;;;;;39.72;29.62;100468.17;1885920;76;21058;-73
2022/07/31 08:52:27;;;;;;;10.30;3.60;;;;;;;39.99;29.73;100474.78;1859417;76;21541;-67
2022/07/31 08:55:10;;;;;;;14.18;3.67;;;;;;;40.31;29.84;100471.46;1889756;76;21046;-68
2022/07/31 08:57:40;;;;;;;9.03;4.03;;;;;;;40.53;29.86;100471.92;1860428;77;21103;-63
2022/07/31 09:00:18;;;;;;;5.28;3.60;;;;;;;40.68;29.61;100470.63;1860673;77;21142;-64
2022/07/31 09:02:47;;;;;;;4.37;3.30;;;;;;;40.84;29.71;100459.72;1860889;77;21160;-64
2022/07/31 09:05:29;;;;;;;6.90;3.58;;;;;;;40.72;29.39;100462.09;1860753;77;21061;-65
2022/07/31 09:07:58;;;;;;;17.95;9.83;;;;;;;40.59;29.73;100457.05;1860952;77;21156;-64
2022/07/31 09:10:28;;;;;;;9.88;4.72;;;;;;;40.67;29.88;100453.80;1887424;75;21401;-64
2022/07/31 09:12:57;;;;;;;7.78;4.33;;;;;;;40.46;29.01;100457.53;1939647;74;21082;-64
2022/07/31 09:15:30;;;;;;;8.48;4.10;;;;;;;40.10;28.28;100451.71;1939835;74;21148;-64
2022/07/31 09:18:01;;;;;;;9.13;5.05;;;;;;;39.70;28.15;100453.01;1939425;74;21039;-64
2022/07/31 09:20:31;;;;;;;6.72;3.65;;;;;;;39.32;28.69;100450.09;1939671;74;21593;-65
2022/07/31 09:23:08;;;;;;;6.83;4.03;;;;;;;39.02;29.09;100442.31;1939506;74;21027;-64
2022/07/31 09:25:38;;;;;;;11.05;5.22;;;;;;;38.94;29.54;100442.74;1937211;74;21059;-64
2022/07/31 09:28:07;;;;;;;7.00;4.25;;;;;;;39.24;29.83;100435.97;1939890;73;21131;-64
2022/07/31 09:30:36;;;;;;;8.00;4.55;;;;;;;39.52;30.02;100435.73;1939896;74;21531;-64
2022/07/31 09:33:14;;;;;;;7.92;4.35;;;;;;;39.65;30.39;100434.48;1872762;74;21015;-64
2022/07/31 09:35:52;;;;;;;6.53;3.87;;;;;;;39.82;29.80;100428.02;1897008;74;21568;-65
2022/07/31 09:38:22;;;;;;;8.55;3.92;;;;;;;39.62;29.72;100424.53;1935624;74;21002;-67
2022/07/31 09:41:17;;;;;;;7.33;4.58;;;;;;;39.32;30.00;100425.30;1939665;74;21053;-67
2022/07/31 09:44:04;;;;;;;7.55;4.47;;;;;;;39.22;30.23;100418.33;1939558;73;21525;-67
2022/07/31 09:46:45;;;;;;;8.33;4.05;;;;;;;39.51;30.76;100415.33;1939782;74;21016;-64
2022/07/31 09:49:15;;;;;;;5.80;4.33;;;;;;;39.63;30.47;100421.52;1938694;74;21050;-64
2022/07/31 09:51:47;;;;;;;7.85;4.17;;;;;;;39.74;30.43;100414.19;1939702;74;21071;-64
2022/07/31 09:54:23;;;;;;;6.70;4.45;;;;;;;39.34;29.72;100412.66;1939137;74;21067;-65
2022/07/31 09:56:54;;;;;;;6.87;4.05;;;;;;;39.09;30.44;100416.80;1935595;74;21044;-64
2022/07/31 09:59:25;;;;;;;8.03;4.35;;;;;;;39.03;30.73;100410.96;1939787;74;21507;-64
2022/07/31 10:01:55;;;;;;;11.60;4.75;;;;;;;39.12;30.97;100403.91;1939744;74;21025;-65
2022/07/31 10:04:24;;;;;;;10.90;4.87;;;;;;;39.05;31.12;100414.80;1939769;73;21440;-64
2022/07/31 10:06:55;;;;;;;10.45;5.22;;;;;;;39.17;31.36;100417.70;1939652;74;21024;-64
2022/07/31 10:09:25;;;;;;;10.30;4.70;;;;;;;39.26;31.16;100420.84;1939817;74;21025;-64
2022/07/31 10:11:55;;;;;;;;;;;;;;;39.18;31.01;100413.05;1932620;73;21154;-65
2022/07/31 10:14:33;;;;;;;9.25;5.00;;;;;;;38.90;31.11;100415.42;1939114;74;20129;-65
2022/07/31 10:17:04;;;;;;;12.85;6.50;;;;;;;38.77;30.88;100411.98;1939018;74;21025;-66
2022/07/31 10:19:54;;;;;;;11.78;5.95;;;;;;;38.59;30.94;100417.24;1939045;74;21126;-65
2022/07/31 10:22:29;;;;;;;8.53;5.20;;;;;;;38.60;31.15;100415.31;1933775;74;21101;-65
2022/07/31 10:25:01;;;;;;;8.28;5.30;;;;;;;38.51;31.20;100410.75;1939078;74;21142;-65
2022/07/31 10:27:30;;;;;;;9.98;4.42;;;;;;;38.28;31.15;100406.87;1939299;74;21107;-66
2022/07/31 10:30:03;;;;;;;9.23;5.03;;;;;;;38.09;31.53;100414.52;1938072;74;21183;-65
2022/07/31 10:32:32;;;;;;;8.58;4.97;;;;;;;37.81;31.57;100402.50;1939148;74;21029;-65
2022/07/31 10:35:15;;;;;;;11.25;4.80;;;;;;;37.43;31.82;100402.09;1875103;74;21068;-69
2022/07/31 10:38:09;;;;;;;8.43;4.90;;;;;;;37.24;32.34;100397.36;1877441;74;21127;-69
2022/07/31 10:40:58;;;;;;;11.05;5.25;;;;;;;37.18;32.43;100395.57;1781748;80;21093;-68
2022/07/31 10:43:46;;;;;;;10.18;5.28;;;;;;;37.17;32.59;100391.17;1799394;80;21172;-63
2022/07/31 10:46:30;;;;;;;7.90;4.60;;;;;;;37.19;32.61;100390.94;1806101;74;21029;-63
2022/07/31 10:49:19;;;;;;;12.10;4.92;;;;;;;37.08;32.67;100385.20;1938958;74;21575;-63
2022/07/31 10:51:59;;;;;;;9.65;4.87;;;;;;;36.94;32.79;100385.73;1933655;74;21648;-63
2022/07/31 10:54:46;;;;;;;13.83;4.58;;;;;;;37.01;33.16;100380.94;1899489;74;21527;-64
2022/07/31 10:57:24;;;;;;;11.20;5.67;;;;;;;37.16;33.14;100388.12;1914071;74;21033;-63
2022/07/31 10:59:55;;;;;;;8.60;5.05;;;;;;;37.22;33.24;100389.91;1903634;74;21056;-69
2022/07/31 11:02:43;;;;;;;11.55;5.20;;;;;;;37.02;32.83;100388.08;1939036;74;21044;-76
2022/07/31 11:05:26;;;;;;;9.28;5.08;;;;;;;36.69;33.17;100386.34;1937453;74;21174;-66
2022/07/31 11:08:03;;;;;;;13.93;5.42;;;;;;;36.46;33.47;100386.33;1935723;74;21101;-66
2022/07/31 11:10:33;;;;;;;9.48;4.70;;;;;;;36.19;33.77;100383.23;1893814;74;21122;-66
2022/07/31 11:13:10;;;;;;;11.60;5.03;;;;;;;36.06;34.31;100380.16;1946975;73;21196;-66
2022/07/31 11:16:04;;;;;;;7.83;5.17;;;;;;;36.02;34.77;100378.44;1951017;73;21073;-66
2022/07/31 11:18:41;;;;;;;11.68;5.60;;;;;;;35.97;34.92;100373.37;1947832;73;21081;-67
2022/07/31 11:21:10;;;;;;;10.13;4.60;;;;;;;35.81;35.00;100370.27;1951755;73;21122;-66
2022/07/31 11:23:40;;;;;;;10.20;5.45;;;;;;;35.73;35.06;100365.97;1951950;73;21522;-66
2022/07/31 11:26:09;;;;;;;10.43;5.90;;;;;;;35.60;35.10;100376.25;1951772;73;21163;-66
2022/07/31 11:28:37;;;;;;;9.58;5.45;;;;;;;35.54;35.32;100372.04;1952003;73;21037;-66
2022/07/31 11:31:08;;;;;;;14.30;6.30;;;;;;;35.43;35.94;100371.44;1957668;73;21088;-66
2022/07/31 11:33:41;;;;;;;11.22;5.22;;;;;;;35.38;36.29;100368.05;1958253;73;21092;-66
2022/07/31 11:36:23;;;;;;;8.53;5.30;;;;;;;35.41;36.44;100368.65;1958147;73;21108;-66
2022/07/31 11:38:56;;;;;;;8.80;5.28;;;;;;;35.41;36.80;100368.65;1958327;73;20998;-66
2022/07/31 11:41:29;;;;;;;10.95;5.90;;;;;;;35.38;36.87;100372.16;1958302;73;20998;-66
2022/07/31 11:43:58;;;;;;;11.28;5.75;;;;;;;35.35;37.00;100368.51;1958292;73;20999;-66
2022/07/31 11:46:29;;;;;;;13.18;5.17;;;;;;;35.14;36.99;100371.74;1958137;73;21096;-66
2022/07/31 11:48:58;;;;;;;9.98;5.00;;;;;;;34.96;37.20;100364.40;1958092;73;21026;-67